GAGO

Details ICAO GAGO (GAQ)
Name GAO
Region Mali
Timezone Africa/Bamako (UTC+0.0)
Plans Departing 3
Arriving 8
Stats Elevation 870 ft / 265 m (AMSL)
Location 16.248434° -0.005457°
Runways 1
Magnetic Variation 1.274° W
Sunrise 2017-12-18 06:23:09 UTC / 2017-12-18 06:23:09 Local
Sunset 2017-12-18 17:32:49 UTC / 2017-12-18 17:32:49 Local
Advertisement - Login to hide

Runways

ID Width Length Bearing (true) Bearing (mag) Surface Threshold Offset Overrun Length
07 148 ft / 45 m 8,198 ft / 2,499 m 62.31° 63.58° Asphalt 0 ft / 0 m 60 ft / 18 m
25 148 ft / 45 m 8,198 ft / 2,499 m 242.31° 243.58° Asphalt 0 ft / 0 m 780 ft / 238 m

Map

Weather


0- 5 10 15 20 25 30 35+ Temperature / ° C

Clouds and Precipitation
Forecast for 2017-12-19 00:00 UTC. Updated an hour ago

Ground ~20,000 ft ~40,000 ft Winds

METAR

Not found

TAF

TAF GAGO 181700Z 1818/1918 36012KT 8000 NSC PROB30 TEMPO 1906/1911 4500 DU

Frequencies

Tower 118.10 MHz TWR
Warning: Do not use this data for real-world aviation or navigation. No guarantee of current accuracy is given.